Time;durP1;ratioP1;P1;durP2;ratioP2;P2;SDS_P1;SDS_P2;PMS_P1;PMS_P2;Temp;Humidity;BMP_temperature;BMP_pressure;BME280_temperature;BME280_humidity;BME280_pressure;Samples;Min_cycle;Max_cycle;Signal;HPM_P1;HPM_P2
2022/05/15 00:02:44;;;;;;;17.65;5.35;;;9.40;99.90;;;;;;5079492;28;20044;-77
2022/05/15 00:05:10;;;;;;;19.63;5.93;;;9.40;99.90;;;;;;5073926;28;20044;-77
2022/05/15 00:07:36;;;;;;;21.23;5.40;;;9.40;99.90;;;;;;5073822;28;20059;-77
2022/05/15 00:10:04;;;;;;;21.80;6.43;;;9.30;99.90;;;;;;5080675;28;20080;-77
2022/05/15 00:12:30;;;;;;;19.23;6.13;;;9.30;99.90;;;;;;5074064;28;20035;-77
2022/05/15 00:14:55;;;;;;;19.00;6.88;;;9.30;99.90;;;;;;5078982;28;20422;-77
2022/05/15 00:17:21;;;;;;;22.55;6.85;;;9.30;99.90;;;;;;5079282;28;20028;-77
2022/05/15 00:19:46;;;;;;;19.85;6.43;;;9.30;99.90;;;;;;5073797;28;20039;-77
2022/05/15 00:22:14;;;;;;;21.30;5.35;;;9.20;99.90;;;;;;5078951;28;20199;-77
2022/05/15 00:24:39;;;;;;;21.08;7.30;;;9.30;99.90;;;;;;5076600;28;20127;-77
2022/05/15 00:27:05;;;;;;;23.35;6.75;;;9.30;99.90;;;;;;5078121;28;20138;-77
2022/05/15 00:29:31;;;;;;;19.00;6.13;;;9.20;99.90;;;;;;5084033;28;20059;-77
2022/05/15 00:31:57;;;;;;;17.73;6.13;;;9.20;99.90;;;;;;5072804;28;20456;-77
2022/05/15 00:34:23;;;;;;;17.80;7.07;;;9.20;99.90;;;;;;5075868;28;20045;-77
2022/05/15 00:36:48;;;;;;;23.42;6.97;;;9.20;99.90;;;;;;5075207;28;20062;-77
2022/05/15 00:39:14;;;;;;;17.88;6.53;;;9.20;99.90;;;;;;5072432;28;20489;-77
2022/05/15 00:41:40;;;;;;;20.55;7.55;;;9.20;99.90;;;;;;5074558;28;20447;-77
2022/05/15 00:44:08;;;;;;;20.10;6.05;;;9.20;99.90;;;;;;5077985;28;20040;-77
2022/05/15 00:46:39;;;;;;;24.50;6.45;;;9.20;99.90;;;;;;5073215;28;20071;-77
2022/05/15 00:49:11;;;;;;;18.27;4.93;;;9.20;99.90;;;;;;5075585;28;20343;-77
2022/05/15 00:51:36;;;;;;;22.42;7.32;;;9.10;99.90;;;;;;5078345;28;20498;-77
2022/05/15 00:54:21;;;;;;;19.60;5.75;;;9.10;99.90;;;;;;5074321;28;20051;-77
2022/05/15 00:56:57;;;;;;;19.75;8.23;;;9.10;99.90;;;;;;5083172;28;20127;-77
2022/05/15 00:59:24;;;;;;;;;;;9.10;99.90;;;;;;5078896;28;20077;-77
2022/05/15 01:01:50;;;;;;;13.40;4.70;;;9.00;99.90;;;;;;5076255;28;19991;-77
2022/05/15 01:04:16;;;;;;;13.95;4.93;;;8.90;99.90;;;;;;5078779;28;20033;-77
2022/05/15 01:06:43;;;;;;;13.90;4.80;;;8.90;99.90;;;;;;5075791;28;20547;-77
2022/05/15 01:09:10;;;;;;;23.50;6.40;;;8.90;99.90;;;;;;5074174;28;20044;-77
2022/05/15 01:11:37;;;;;;;15.75;5.43;;;8.90;99.90;;;;;;5072323;28;20485;-77
2022/05/15 01:14:05;;;;;;;16.35;6.78;;;8.90;99.90;;;;;;5077356;28;20387;-77
2022/05/15 01:16:32;;;;;;;13.98;4.70;;;8.90;99.90;;;;;;5078280;28;20159;-77
2022/05/15 01:18:59;;;;;;;16.48;6.28;;;8.80;99.90;;;;;;5073895;28;20412;-77
2022/05/15 01:21:31;;;;;;;14.35;5.93;;;8.80;99.90;;;;;;5078703;28;20048;-77
2022/05/15 01:23:59;;;;;;;16.67;6.45;;;8.80;99.90;;;;;;5079635;28;20041;-77
2022/05/15 01:26:25;;;;;;;18.50;6.78;;;8.80;99.90;;;;;;5077219;28;20044;-77
2022/05/15 01:28:51;;;;;;;19.95;6.78;;;8.70;99.90;;;;;;5076034;28;20066;-77
2022/05/15 01:31:18;;;;;;;17.88;6.22;;;8.70;99.90;;;;;;5057227;28;20465;-77
2022/05/15 01:33:52;;;;;;;13.73;5.82;;;8.70;99.90;;;;;;5072622;28;20037;-77
2022/05/15 01:36:20;;;;;;;24.88;6.35;;;8.60;99.90;;;;;;5076397;28;20404;-77
2022/05/15 01:38:46;;;;;;;18.17;7.07;;;8.60;99.90;;;;;;5081496;28;20088;-77
2022/05/15 01:41:12;;;;;;;16.23;6.28;;;8.60;99.90;;;;;;5077224;28;20123;-77
2022/05/15 01:43:40;;;;;;;16.23;5.63;;;8.50;99.90;;;;;;5076209;28;20414;-77
2022/05/15 01:46:06;;;;;;;18.45;5.20;;;8.60;99.90;;;;;;5072144;28;20483;-77
2022/05/15 01:48:32;;;;;;;17.73;6.93;;;8.50;99.90;;;;;;5077748;28;20066;-77
2022/05/15 01:50:58;;;;;;;17.35;5.55;;;8.50;99.90;;;;;;5075850;28;20036;-78
2022/05/15 01:53:23;;;;;;;16.05;5.88;;;8.50;99.90;;;;;;5077112;28;20051;-78
2022/05/15 01:55:50;;;;;;;11.85;5.13;;;8.50;99.90;;;;;;5079167;28;20036;-78
2022/05/15 01:58:16;;;;;;;13.40;4.20;;;8.50;99.90;;;;;;5074432;28;20040;-78
2022/05/15 02:00:41;;;;;;;17.17;4.70;;;8.50;99.90;;;;;;5072260;28;20036;-78
2022/05/15 02:03:07;;;;;;;13.95;5.00;;;8.40;99.90;;;;;;5073087;28;20402;-77
2022/05/15 02:05:32;;;;;;;14.88;5.45;;;8.30;99.90;;;;;;5076769;28;20040;-78
2022/05/15 02:07:58;;;;;;;16.48;5.82;;;8.30;99.90;;;;;;5073618;28;20042;-77
2022/05/15 02:10:24;;;;;;;18.17;6.75;;;8.20;99.90;;;;;;5072953;28;20036;-78
2022/05/15 02:12:49;;;;;;;23.05;6.90;;;8.30;99.90;;;;;;5075892;28;20398;-77
2022/05/15 02:15:15;;;;;;;20.38;7.38;;;8.20;99.90;;;;;;5075378;28;20032;-78
2022/05/15 02:17:41;;;;;;;24.60;8.07;;;8.20;99.90;;;;;;5070379;28;20098;-78
2022/05/15 02:20:07;;;;;;;24.80;9.27;;;8.20;99.90;;;;;;5072742;28;20323;-78
2022/05/15 02:22:33;;;;;;;15.27;6.88;;;8.20;99.90;;;;;;5071154;28;20054;-78
2022/05/15 02:24:59;;;;;;;13.27;6.03;;;8.20;99.90;;;;;;5076126;28;20516;-77
2022/05/15 02:27:24;;;;;;;15.48;6.55;;;8.10;99.90;;;;;;5071473;28;20032;-78
2022/05/15 02:29:50;;;;;;;25.33;8.43;;;8.10;99.90;;;;;;5075019;28;20050;-78
2022/05/15 02:32:15;;;;;;;18.60;7.05;;;8.10;99.90;;;;;;5073825;28;20032;-78
2022/05/15 02:34:41;;;;;;;23.85;7.75;;;8.10;99.90;;;;;;5075013;28;20036;-78
2022/05/15 02:37:06;;;;;;;20.08;8.20;;;8.10;99.90;;;;;;5073738;28;20032;-78
2022/05/15 02:39:33;;;;;;;16.83;6.47;;;8.10;99.90;;;;;;5077717;28;20562;-78
2022/05/15 02:42:01;;;;;;;18.88;6.45;;;8.10;99.90;;;;;;5078584;28;20509;-78
2022/05/15 02:44:28;;;;;;;19.77;6.50;;;8.10;99.90;;;;;;5074557;28;20045;-77
2022/05/15 02:46:53;;;;;;;22.85;6.70;;;8.10;99.90;;;;;;5076413;28;20479;-78
2022/05/15 02:52:03;;;;;;;19.98;6.55;;;8.00;99.90;;;;;;5076213;28;20044;-78
2022/05/15 02:54:29;;;;;;;17.40;7.47;;;8.00;99.90;;;;;;5076444;28;20043;-78
2022/05/15 02:56:55;;;;;;;18.98;6.55;;;8.00;99.90;;;;;;5073441;28;20036;-78
2022/05/15 02:59:20;;;;;;;16.42;7.13;;;8.00;99.90;;;;;;5075573;28;20044;-77
2022/05/15 03:01:46;;;;;;;19.95;9.00;;;7.90;99.90;;;;;;5079251;28;20055;-77
2022/05/15 03:04:11;;;;;;;18.95;7.38;;;7.80;99.90;;;;;;5072668;28;20032;-77
2022/05/15 03:06:37;;;;;;;19.20;6.55;;;7.70;99.90;;;;;;5071642;28;20507;-78
2022/05/15 03:09:03;;;;;;;19.48;6.93;;;7.60;99.90;;;;;;5076725;28;20086;-78
2022/05/15 03:11:28;;;;;;;19.85;6.25;;;7.50;99.90;;;;;;5074113;28;20092;-77
2022/05/15 03:13:55;;;;;;;15.00;5.55;;;7.40;99.90;;;;;;5074618;28;20190;-77
2022/05/15 03:16:21;;;;;;;15.00;6.25;;;7.40;99.90;;;;;;5076887;28;20089;-77
2022/05/15 03:18:49;;;;;;;18.55;8.93;;;7.50;99.90;;;;;;5071191;28;20044;-78
2022/05/15 03:21:28;;;;;;;18.95;7.05;;;7.50;99.90;;;;;;5075426;28;20039;-78
2022/05/15 03:24:04;;;;;;;14.30;5.97;;;7.40;99.90;;;;;;5076885;28;20119;-78
2022/05/15 03:26:32;;;;;;;10.43;6.05;;;7.40;99.90;;;;;;5082229;28;20060;-77
2022/05/15 03:28:58;;;;;;;19.85;9.77;;;7.50;99.90;;;;;;5074398;28;20166;-77
2022/05/15 03:31:24;;;;;;;15.65;7.55;;;7.40;99.90;;;;;;5079209;28;20407;-77
2022/05/15 03:33:49;;;;;;;18.10;7.53;;;7.40;99.90;;;;;;5076135;28;20044;-77
2022/05/15 03:36:16;;;;;;;16.30;7.97;;;7.40;99.90;;;;;;5072668;28;20047;-77
2022/05/15 03:38:43;;;;;;;23.85;9.38;;;7.40;99.90;;;;;;5078018;28;20036;-77
2022/05/15 03:41:09;;;;;;;23.88;9.68;;;7.50;99.90;;;;;;5076929;28;20683;-77
2022/05/15 03:43:35;;;;;;;16.83;9.05;;;7.50;99.90;;;;;;5080301;28;20036;-77
2022/05/15 03:46:02;;;;;;;18.35;8.32;;;7.50;99.90;;;;;;5085173;28;20036;-77
2022/05/15 03:48:27;;;;;;;23.58;9.75;;;7.50;99.90;;;;;;5082790;28;20044;-77
2022/05/15 03:50:53;;;;;;;18.17;7.93;;;7.60;99.90;;;;;;5078545;28;20439;-78
2022/05/15 03:53:19;;;;;;;18.98;8.77;;;7.60;99.90;;;;;;5079435;28;20040;-77
2022/05/15 03:55:45;;;;;;;15.02;8.30;;;7.50;99.90;;;;;;5073938;28;20044;-78
2022/05/15 03:58:11;;;;;;;22.50;9.10;;;7.60;99.90;;;;;;5077220;28;20482;-77
2022/05/15 04:00:36;;;;;;;23.08;10.23;;;7.60;99.90;;;;;;5077031;28;20508;-77
2022/05/15 04:03:02;;;;;;;15.63;8.63;;;7.60;99.90;;;;;;5074880;28;20037;-77
2022/05/15 04:05:28;;;;;;;21.05;8.45;;;7.60;99.90;;;;;;5078336;28;20051;-77
2022/05/15 04:07:56;;;;;;;19.25;9.63;;;7.60;99.90;;;;;;5072089;28;20126;-77
2022/05/15 04:10:22;;;;;;;17.08;9.32;;;7.50;99.90;;;;;;5059390;28;20040;-77
2022/05/15 04:12:48;;;;;;;14.48;8.05;;;7.50;99.90;;;;;;5078064;28;20040;-77
2022/05/15 04:15:14;;;;;;;18.02;7.70;;;7.50;99.90;;;;;;5078631;28;20433;-77
2022/05/15 04:17:44;;;;;;;21.02;9.27;;;7.50;99.90;;;;;;5074396;28;20037;-77
2022/05/15 04:20:12;;;;;;;19.55;9.70;;;7.50;99.90;;;;;;5088715;28;20395;-80
2022/05/15 04:22:38;;;;;;;21.85;9.75;;;7.40;99.90;;;;;;5060045;28;20040;-77
2022/05/15 04:25:04;;;;;;;21.65;9.10;;;7.40;99.90;;;;;;5079232;28;20048;-77
2022/05/15 04:27:30;;;;;;;22.65;8.70;;;7.30;99.90;;;;;;5084008;28;20093;-77
2022/05/15 04:29:56;;;;;;;16.30;8.40;;;7.40;99.90;;;;;;5078978;28;20486;-77
2022/05/15 04:32:21;;;;;;;14.88;7.68;;;7.50;99.90;;;;;;5073200;28;20039;-77
2022/05/15 04:34:47;;;;;;;17.63;8.05;;;7.60;99.90;;;;;;5073751;28;20040;-77
2022/05/15 04:37:13;;;;;;;14.98;8.32;;;7.60;99.90;;;;;;5076383;28;20044;-77
2022/05/15 04:39:38;;;;;;;22.60;9.35;;;7.70;99.90;;;;;;5078870;28;20134;-77
2022/05/15 04:42:04;;;;;;;17.30;7.82;;;7.80;99.90;;;;;;5075546;28;20234;-77
2022/05/15 04:44:30;;;;;;;17.38;9.27;;;7.80;99.90;;;;;;5075882;28;20035;-77
2022/05/15 04:46:55;;;;;;;21.25;10.10;;;7.80;99.90;;;;;;5075585;28;22004;-77
2022/05/15 04:49:21;;;;;;;18.83;9.05;;;7.90;99.90;;;;;;5079130;28;20398;-77
2022/05/15 04:51:46;;;;;;;16.50;8.20;;;8.00;99.90;;;;;;5072553;28;20048;-77
2022/05/15 04:54:12;;;;;;;15.20;8.68;;;8.10;99.90;;;;;;5079829;28;20127;-77
2022/05/15 04:56:38;;;;;;;15.75;9.27;;;8.10;99.90;;;;;;5077243;28;20096;-77
2022/05/15 04:59:03;;;;;;;15.45;8.80;;;8.20;99.90;;;;;;5081205;28;20080;-77
2022/05/15 05:01:29;;;;;;;25.52;9.48;;;8.30;99.90;;;;;;5083882;28;20062;-77
2022/05/15 05:03:56;;;;;;;20.05;9.63;;;8.30;99.90;;;;;;5074047;28;20045;-77
2022/05/15 05:06:23;;;;;;;21.45;9.45;;;8.40;99.90;;;;;;5074024;28;20184;-77
2022/05/15 05:08:49;;;;;;;17.95;10.57;;;8.60;99.90;;;;;;5074184;28;20044;-77
2022/05/15 05:11:15;;;;;;;24.65;12.93;;;8.70;99.90;;;;;;5072119;28;20044;-77
2022/05/15 05:13:40;;;;;;;23.00;9.38;;;8.80;99.90;;;;;;5075375;28;20237;-77
2022/05/15 05:16:06;;;;;;;28.42;11.15;;;9.00;99.90;;;;;;5058380;28;20119;-77
2022/05/15 05:18:31;;;;;;;22.33;10.43;;;9.10;99.90;;;;;;5072282;28;20035;-77
2022/05/15 05:20:57;;;;;;;25.90;10.40;;;9.20;99.90;;;;;;5061977;28;20040;-77
2022/05/15 05:23:23;;;;;;;26.42;10.70;;;9.40;99.90;;;;;;5074993;28;20032;-78
2022/05/15 05:25:48;;;;;;;16.33;9.27;;;9.50;99.90;;;;;;5078066;28;20402;-78
2022/05/15 05:28:15;;;;;;;24.15;11.13;;;9.70;99.90;;;;;;5079272;28;20402;-77
2022/05/15 05:30:41;;;;;;;16.52;8.80;;;9.80;99.90;;;;;;5075863;28;20051;-77
2022/05/15 05:33:07;;;;;;;20.65;9.20;;;10.00;99.90;;;;;;5078685;28;20491;-77
2022/05/15 05:35:34;;;;;;;23.70;10.02;;;10.10;99.90;;;;;;5070859;28;20083;-77
2022/05/15 05:38:00;;;;;;;27.90;11.35;;;10.30;99.90;;;;;;5075810;28;20036;-77
2022/05/15 05:40:25;;;;;;;28.13;8.48;;;10.40;99.90;;;;;;5075699;28;20086;-77
2022/05/15 05:42:51;;;;;;;20.15;8.52;;;10.60;99.90;;;;;;5071498;28;20048;-77
2022/05/15 05:45:17;;;;;;;19.42;8.63;;;10.70;99.90;;;;;;5074229;28;20051;-78
2022/05/15 05:47:46;;;;;;;19.15;8.82;;;10.90;99.90;;;;;;5077566;28;20052;-77
2022/05/15 05:50:12;;;;;;;23.80;9.48;;;11.00;99.90;;;;;;5070465;28;20028;-77
2022/05/15 05:52:41;;;;;;;25.00;8.43;;;11.20;99.90;;;;;;5076450;28;20119;-77
2022/05/15 05:55:10;;;;;;;18.67;7.70;;;11.30;99.90;;;;;;5072840;28;20094;-77
2022/05/15 05:57:36;;;;;;;22.25;7.63;;;11.40;99.90;;;;;;5077924;28;20040;-77
2022/05/15 06:00:14;;;;;;;22.27;8.63;;;11.60;99.90;;;;;;5076443;28;20060;-77
2022/05/15 06:02:40;;;;;;;17.42;8.10;;;11.70;99.90;;;;;;5075230;28;20546;-77
2022/05/15 06:05:06;;;;;;;16.92;8.50;;;11.80;99.90;;;;;;5070832;28;20047;-77
2022/05/15 06:07:37;;;;;;;19.00;8.02;;;11.90;99.90;;;;;;5075454;28;20032;-79
2022/05/15 06:10:05;;;;;;;17.25;6.22;;;12.00;99.90;;;;;;5074742;28;20084;-77
2022/05/15 06:12:31;;;;;;;19.13;6.78;;;12.20;99.90;;;;;;5064608;28;20084;-77
2022/05/15 06:14:56;;;;;;;22.38;8.80;;;12.30;99.90;;;;;;5071208;28;20483;-77
2022/05/15 06:17:24;;;;;;;22.77;7.18;;;12.40;99.90;;;;;;5071379;28;20094;-77
2022/05/15 06:19:50;;;;;;;18.35;6.85;;;12.50;99.90;;;;;;5077631;28;20063;-77
2022/05/15 06:22:16;;;;;;;15.48;6.63;;;12.60;99.90;;;;;;5080222;28;20071;-77
2022/05/15 06:24:42;;;;;;;20.17;6.25;;;12.70;99.90;;;;;;5073878;28;20067;-77
2022/05/15 06:27:09;;;;;;;15.55;6.20;;;12.90;99.90;;;;;;5082842;28;20490;-77
2022/05/15 06:29:36;;;;;;;10.98;5.40;;;13.00;99.90;;;;;;5059434;28;20482;-77
2022/05/15 06:32:02;;;;;;;16.58;6.20;;;13.10;99.90;;;;;;5075325;28;20048;-77
2022/05/15 06:34:27;;;;;;;13.07;5.35;;;13.30;99.90;;;;;;5075933;28;20047;-77
2022/05/15 06:36:53;;;;;;;20.20;5.47;;;13.40;99.90;;;;;;5077041;28;20036;-77
2022/05/15 06:39:18;;;;;;;19.13;5.05;;;13.60;99.90;;;;;;5072397;28;20039;-77
2022/05/15 06:41:46;;;;;;;22.40;6.25;;;13.80;99.90;;;;;;5076562;28;20131;-77
2022/05/15 06:44:11;;;;;;;17.48;6.07;;;14.10;99.90;;;;;;5074905;28;20040;-77
2022/05/15 06:46:37;;;;;;;10.95;4.72;;;14.40;99.90;;;;;;5069987;28;20051;-77
2022/05/15 06:49:03;;;;;;;21.27;6.18;;;14.60;99.90;;;;;;5073631;28;20043;-77
2022/05/15 06:51:29;;;;;;;8.13;3.67;;;14.90;99.90;;;;;;5057533;28;20055;-77
2022/05/15 06:53:54;;;;;;;12.45;4.28;;;15.10;99.90;;;;;;5076357;28;20032;-77
2022/05/15 06:59:04;;;;;;;17.60;5.18;;;15.50;99.90;;;;;;5077012;28;20135;-77
2022/05/15 07:01:31;;;;;;;9.02;3.35;;;15.70;99.90;;;;;;5085663;28;20127;-77
2022/05/15 07:03:57;;;;;;;15.40;3.70;;;15.90;99.90;;;;;;5079100;28;20040;-77
2022/05/15 07:06:23;;;;;;;11.27;4.03;;;16.10;99.90;;;;;;5075951;28;20109;-76
2022/05/15 07:08:48;;;;;;;20.73;4.30;;;16.20;99.90;;;;;;5079177;28;20044;-76
2022/05/15 07:11:15;;;;;;;10.82;4.00;;;16.10;99.90;;;;;;5075901;28;20036;-76
2022/05/15 07:13:41;;;;;;;11.23;3.40;;;16.10;99.90;;;;;;5080340;28;20036;-76
2022/05/15 07:16:08;;;;;;;13.85;3.45;;;16.30;99.90;;;;;;5076221;28;20043;-76
2022/05/15 07:18:35;;;;;;;12.30;4.55;;;16.50;99.90;;;;;;5080133;28;20513;-76
2022/05/15 07:21:01;;;;;;;8.80;2.83;;;16.60;99.90;;;;;;5061657;28;20296;-76
2022/05/15 07:23:27;;;;;;;10.50;4.32;;;16.90;99.90;;;;;;5074749;28;20110;-76
2022/05/15 07:25:54;;;;;;;13.70;3.80;;;17.10;99.90;;;;;;5075171;28;20063;-76
2022/05/15 07:28:20;;;;;;;12.48;3.97;;;17.20;99.90;;;;;;5076641;28;20040;-77
2022/05/15 07:30:45;;;;;;;14.32;4.22;;;17.40;99.90;;;;;;5062857;28;20042;-76
2022/05/15 07:33:11;;;;;;;8.95;3.55;;;17.50;99.90;;;;;;5080968;28;20035;-76
2022/05/15 07:35:37;;;;;;;10.50;3.03;;;17.40;99.90;;;;;;5076619;28;20096;-76
2022/05/15 07:38:02;;;;;;;12.82;3.97;;;17.40;99.90;;;;;;5074993;28;20438;-76
2022/05/15 07:40:28;;;;;;;14.85;3.95;;;17.60;99.90;;;;;;5080322;28;20197;-76
2022/05/15 07:42:54;;;;;;;10.98;3.95;;;17.70;99.90;;;;;;5075588;28;20418;-76
2022/05/15 07:45:20;;;;;;;10.85;3.65;;;17.80;99.90;;;;;;5076314;28;20048;-76
2022/05/15 07:47:45;;;;;;;15.60;3.90;;;18.00;99.90;;;;;;5081095;28;20093;-76
2022/05/15 07:50:12;;;;;;;9.25;2.80;;;18.10;99.90;;;;;;5084129;28;20054;-76
2022/05/15 07:52:38;;;;;;;13.30;3.78;;;18.20;99.90;;;;;;5082234;28;20040;-76
2022/05/15 07:55:08;;;;;;;13.80;4.25;;;18.40;99.90;;;;;;5084630;28;20077;-75
2022/05/15 07:57:34;;;;;;;11.48;3.45;;;18.50;98.80;;;;;;5064913;28;20044;-76
2022/05/15 08:00:03;;;;;;;10.80;3.05;;;18.50;97.50;;;;;;5076249;28;20040;-75
2022/05/15 08:02:29;;;;;;;12.73;3.67;;;18.70;96.50;;;;;;5080545;28;20105;-76
2022/05/15 08:10:22;;;;;;;11.18;2.45;;;19.00;94.80;;;;;;5079929;28;20048;-75
2022/05/15 08:12:48;;;;;;;10.95;3.58;;;19.10;93.30;;;;;;5076924;28;20040;-75
2022/05/15 08:15:14;;;;;;;10.68;2.97;;;19.30;92.70;;;;;;5076972;28;20072;-77
2022/05/15 08:17:39;;;;;;;18.00;5.13;;;19.50;91.90;;;;;;5078337;28;20187;-76
2022/05/15 08:25:38;;;;;;;8.60;3.17;;;19.80;87.90;;;;;;5076084;28;20048;-76
2022/05/15 08:28:04;;;;;;;13.18;3.70;;;19.60;87.80;;;;;;5074714;28;20773;-76
2022/05/15 08:30:29;;;;;;;13.32;3.88;;;19.40;89.00;;;;;;5077840;28;20068;-76
2022/05/15 08:32:55;;;;;;;15.70;4.00;;;19.60;89.50;;;;;;5079898;28;20488;-76
2022/05/15 08:35:20;;;;;;;13.00;4.13;;;19.80;87.40;;;;;;5077488;28;20040;-76
2022/05/15 08:37:46;;;;;;;9.23;3.17;;;20.10;84.70;;;;;;5071829;28;20033;-76
2022/05/15 08:40:12;;;;;;;9.35;3.53;;;20.10;82.30;;;;;;5072627;28;20045;-76
2022/05/15 08:42:58;;;;;;;13.95;2.72;;;20.30;78.80;;;;;;5069448;28;20509;-76
2022/05/15 08:45:28;;;;;;;9.25;2.50;;;20.30;77.70;;;;;;5075273;28;20083;-76
2022/05/15 08:48:04;;;;;;;11.77;2.38;;;20.50;78.50;;;;;;5057421;28;20071;-76
2022/05/15 08:50:35;;;;;;;13.15;3.60;;;20.60;73.00;;;;;;5078802;28;20050;-76
2022/05/15 08:53:07;;;;;;;12.60;3.45;;;20.60;73.80;;;;;;5074770;28;20290;-76
2022/05/15 08:55:42;;;;;;;35.78;22.25;;;20.80;74.70;;;;;;5078604;28;20040;-76
2022/05/15 08:58:15;;;;;;;26.92;13.98;;;21.00;74.10;;;;;;5084734;28;20033;-76
2022/05/15 09:00:46;;;;;;;49.63;26.88;;;21.20;74.10;;;;;;5075744;28;20105;-76
2022/05/15 09:03:14;;;;;;;14.57;4.30;;;21.50;72.40;;;;;;5078311;28;20036;-76
2022/05/15 09:06:06;;;;;;;21.25;7.85;;;21.60;71.50;;;;;;5075084;28;20045;-76
2022/05/15 09:09:00;;;;;;;11.18;2.88;;;21.80;70.90;;;;;;5076859;28;20044;-76
2022/05/15 09:11:52;;;;;;;11.60;2.67;;;21.90;69.00;;;;;;5073553;28;20055;-76
2022/05/15 09:14:45;;;;;;;12.52;2.83;;;22.00;66.70;;;;;;5081490;28;20037;-77
2022/05/15 09:17:47;;;;;;;11.32;3.33;;;22.20;68.90;;;;;;5076592;28;20075;-77
2022/05/15 09:20:31;;;;;;;16.02;3.78;;;22.40;65.50;;;;;;5076853;28;20046;-77
2022/05/15 09:23:08;;;;;;;11.15;3.00;;;22.50;64.20;;;;;;5077108;28;20185;-77
2022/05/15 09:25:36;;;;;;;8.57;2.20;;;22.30;64.20;;;;;;5073629;28;20071;-76
2022/05/15 09:28:12;;;;;;;8.65;1.73;;;22.40;64.10;;;;;;5073005;28;20082;-77
2022/05/15 09:30:42;;;;;;;10.60;2.67;;;22.30;62.00;;;;;;5073011;28;20442;-77
2022/05/15 09:33:28;;;;;;;6.25;2.13;;;22.50;63.40;;;;;;5056014;28;20040;-77
2022/05/15 09:36:18;;;;;;;11.52;3.28;;;22.60;62.60;;;;;;5074950;28;20044;-77
2022/05/15 09:38:44;;;;;;;7.40;2.05;;;22.90;62.30;;;;;;5070389;28;20040;-77
2022/05/15 09:44:35;;;;;;;11.27;5.30;;;23.20;60.20;;;;;;5073220;28;20486;-78
2022/05/15 09:47:15;;;;;;;16.42;3.17;;;23.30;59.50;;;;;;5071528;28;20221;-76
2022/05/15 09:49:41;;;;;;;10.10;3.30;;;23.20;62.00;;;;;;5075169;28;20123;-77
2022/05/15 09:52:11;;;;;;;15.63;4.50;;;23.30;62.20;;;;;;5074258;28;20435;-77
2022/05/15 09:54:38;;;;;;;10.30;4.28;;;23.70;61.30;;;;;;5070567;28;20415;-78
2022/05/15 09:57:26;;;;;;;125.90;111.95;;;24.00;60.80;;;;;;5055527;28;20453;-78
2022/05/15 09:59:58;;;;;;;14.07;5.25;;;24.20;59.30;;;;;;5073093;28;20043;-77
2022/05/15 10:02:25;;;;;;;10.75;3.20;;;24.30;58.70;;;;;;5078733;28;20364;-77
2022/05/15 10:04:52;;;;;;;11.32;3.00;;;24.30;58.60;;;;;;5076472;28;20047;-77
2022/05/15 10:07:35;;;;;;;10.35;3.42;;;24.30;57.00;;;;;;5074948;28;20552;-77
2022/05/15 10:10:21;;;;;;;5.13;1.65;;;24.30;56.80;;;;;;5078788;28;20072;-77
2022/05/15 10:12:52;;;;;;;7.50;2.00;;;24.50;54.40;;;;;;5072257;28;20649;-77
2022/05/15 10:15:18;;;;;;;9.95;3.20;;;24.40;56.80;;;;;;5074425;28;20045;-77
2022/05/15 10:17:56;;;;;;;7.53;2.08;;;24.60;56.90;;;;;;5090534;28;20409;-77
2022/05/15 10:20:31;;;;;;;9.15;3.13;;;24.60;54.20;;;;;;5084997;28;20164;-77
2022/05/15 10:23:05;;;;;;;9.57;3.42;;;24.60;54.40;;;;;;5080608;28;20039;-75
2022/05/15 10:25:49;;;;;;;10.23;2.67;;;24.60;55.80;;;;;;5091960;28;20036;-75
2022/05/15 10:28:30;;;;;;;9.95;2.67;;;24.60;52.90;;;;;;5090602;28;20047;-75
2022/05/15 10:31:22;;;;;;;13.23;3.30;;;24.60;55.20;;;;;;5073667;28;20398;-77
2022/05/15 10:33:52;;;;;;;9.23;2.45;;;24.90;53.70;;;;;;5089896;28;20100;-77
2022/05/15 10:36:25;;;;;;;9.75;2.10;;;25.10;53.70;;;;;;5084707;28;20076;-77
2022/05/15 10:39:29;;;;;;;12.60;3.33;;;25.40;54.20;;;;;;5090678;28;20082;-77
2022/05/15 10:42:13;;;;;;;6.00;2.20;;;25.40;51.80;;;;;;5089987;28;20040;-77
2022/05/15 10:45:09;;;;;;;11.05;2.55;;;25.60;54.30;;;;;;5080103;28;20044;-77
2022/05/15 10:47:45;;;;;;;10.18;2.40;;;25.40;52.60;;;;;;5089677;28;20048;-77
2022/05/15 10:51:01;;;;;;;7.07;2.17;;;25.30;52.20;;;;;;5090487;28;20501;-78
2022/05/15 10:59:39;;;;;;;7.97;2.25;;;25.00;51.90;;;;;;5090123;28;20047;-77
2022/05/15 11:02:40;;;;;;;6.35;1.73;;;25.00;50.70;;;;;;5074370;28;20096;-77
2022/05/15 11:05:38;;;;;;;7.68;2.83;;;25.10;52.20;;;;;;5069740;28;20044;-77
2022/05/15 11:08:27;;;;;;;8.52;2.28;;;25.20;53.30;;;;;;5069734;28;20095;-77
2022/05/15 11:11:12;;;;;;;10.30;2.58;;;25.40;52.90;;;;;;5070207;28;20135;-78
2022/05/15 11:13:56;;;;;;;12.43;3.45;;;25.70;51.50;;;;;;5069539;28;20049;-77
2022/05/15 11:16:33;;;;;;;12.68;3.50;;;25.80;51.10;;;;;;5070972;28;20043;-77
2022/05/15 11:19:25;;;;;;;7.95;3.20;;;26.00;51.70;;;;;;5077907;28;20052;-77
2022/05/15 11:21:57;;;;;;;9.35;2.85;;;26.00;50.00;;;;;;5076807;28;20040;-78
2022/05/15 11:24:22;;;;;;;8.80;2.88;;;26.20;50.90;;;;;;5074628;28;20043;-77
2022/05/15 11:26:53;;;;;;;8.02;2.45;;;26.20;51.60;;;;;;5078964;28;20048;-77
2022/05/15 11:29:21;;;;;;;7.05;1.70;;;26.40;51.70;;;;;;5073212;28;20044;-77
2022/05/15 11:32:26;;;;;;;8.55;2.72;;;26.40;50.40;;;;;;5076922;28;20035;-77
2022/05/15 11:35:16;;;;;;;7.18;1.58;;;26.50;49.40;;;;;;5069450;28;20084;-78
2022/05/15 11:38:00;;;;;;;11.63;1.90;;;26.70;49.70;;;;;;5073277;28;20499;-78
2022/05/15 11:40:42;;;;;;;12.65;2.85;;;26.70;49.00;;;;;;5074181;28;20051;-77
2022/05/15 11:43:26;;;;;;;6.85;2.53;;;26.50;49.00;;;;;;5074027;28;20402;-77
2022/05/15 11:45:58;;;;;;;12.80;2.83;;;26.60;48.80;;;;;;5071711;28;20045;-77
2022/05/15 11:48:51;;;;;;;7.35;2.63;;;26.70;48.60;;;;;;5075481;28;20498;-77
2022/05/15 11:51:17;;;;;;;9.32;2.42;;;27.00;49.20;;;;;;5075795;28;20052;-77
2022/05/15 11:53:50;;;;;;;9.60;2.50;;;27.50;48.60;;;;;;5072759;28;20501;-79
2022/05/15 11:56:38;;;;;;;11.13;3.72;;;27.80;47.40;;;;;;5078203;28;20036;-77
2022/05/15 11:59:15;;;;;;;53.55;42.75;;;27.60;46.70;;;;;;5061910;28;20048;-77
2022/05/15 12:01:46;;;;;;;68.20;49.10;;;27.40;46.00;;;;;;5081150;28;20036;-77
2022/05/15 12:04:18;;;;;;;6.75;3.40;;;27.10;48.00;;;;;;5077471;28;20062;-78
2022/05/15 12:06:46;;;;;;;219.95;184.85;;;26.80;47.90;;;;;;5056068;28;20418;-77
2022/05/15 12:09:19;;;;;;;12.05;3.13;;;26.50;48.60;;;;;;5076190;28;20048;-78
2022/05/15 12:11:47;;;;;;;11.02;2.38;;;26.40;47.10;;;;;;5076601;28;20114;-79
2022/05/15 12:14:21;;;;;;;10.25;1.92;;;26.40;49.30;;;;;;5083723;28;20075;-79
2022/05/15 12:17:22;;;;;;;6.90;2.03;;;26.70;47.90;;;;;;5079241;28;20058;-77
2022/05/15 12:19:49;;;;;;;8.02;1.95;;;27.30;46.80;;;;;;5077963;28;20044;-78
2022/05/15 12:22:16;;;;;;;8.05;2.35;;;27.60;46.80;;;;;;5078018;28;20040;-78
2022/05/15 12:24:49;;;;;;;7.13;1.90;;;27.90;45.20;;;;;;5074303;28;20029;-77
2022/05/15 12:27:27;;;;;;;8.77;2.00;;;27.90;46.10;;;;;;5082858;28;20047;-77
2022/05/15 12:30:12;;;;;;;9.35;2.22;;;28.00;45.00;;;;;;5072210;28;20051;-78
2022/05/15 12:32:39;;;;;;;;;;;28.10;46.30;;;;;;5078253;28;20418;-78
2022/05/15 12:35:16;;;;;;;10.40;2.70;;;28.50;45.00;;;;;;5078322;28;19920;-78
2022/05/15 12:38:05;;;;;;;7.75;2.10;;;28.50;44.60;;;;;;5074404;28;20044;-78
2022/05/15 12:40:55;;;;;;;8.05;1.92;;;28.30;44.40;;;;;;5079004;28;20040;-78
2022/05/15 12:43:40;;;;;;;5.65;1.98;;;28.20;44.50;;;;;;5074226;28;20072;-78
2022/05/15 12:46:07;;;;;;;8.05;2.72;;;28.40;45.00;;;;;;5074471;28;20139;-78
2022/05/15 12:48:38;;;;;;;7.18;2.20;;;28.50;45.10;;;;;;5083267;28;20045;-79
2022/05/15 12:51:09;;;;;;;11.48;2.90;;;28.80;44.10;;;;;;5083658;28;20075;-79
2022/05/15 12:53:47;;;;;;;7.00;2.45;;;29.30;43.90;;;;;;5079130;28;20429;-79
2022/05/15 12:56:25;;;;;;;10.18;2.83;;;29.50;43.50;;;;;;5082671;28;20044;-79
2022/05/15 12:58:54;;;;;;;8.98;2.83;;;29.00;43.40;;;;;;5077612;28;20494;-78
2022/05/15 13:01:21;;;;;;;5.60;1.83;;;28.80;43.60;;;;;;5076082;28;20120;-79
2022/05/15 13:03:53;;;;;;;8.50;1.67;;;28.60;43.90;;;;;;5078287;28;20040;-78
2022/05/15 13:06:26;;;;;;;8.10;2.38;;;28.50;42.90;;;;;;5074937;28;20044;-80
2022/05/15 13:08:56;;;;;;;7.75;1.55;;;28.60;43.50;;;;;;5077082;28;20141;-79
2022/05/15 13:11:34;;;;;;;7.65;1.98;;;28.60;43.60;;;;;;5075851;28;20067;-77
2022/05/15 13:14:00;;;;;;;8.70;2.67;;;28.70;43.00;;;;;;5077494;28;20402;-76
2022/05/15 13:16:27;;;;;;;8.18;1.75;;;28.70;43.10;;;;;;5079431;28;20084;-76
2022/05/15 13:18:53;;;;;;;6.13;1.70;;;28.80;42.60;;;;;;5076512;28;20107;-77
2022/05/15 13:21:32;;;;;;;9.90;2.65;;;28.80;43.60;;;;;;5075731;28;20691;-77
2022/05/15 13:23:58;;;;;;;7.80;2.03;;;28.60;42.80;;;;;;5076103;28;20516;-76
2022/05/15 13:26:34;;;;;;;7.68;1.58;;;28.80;43.30;;;;;;5075287;28;20040;-76